Time;durP1;ratioP1;P1;durP2;ratioP2;P2;SDS_P1;SDS_P2;PMS_P1;PMS_P2;Temp;Humidity;BMP_temperature;BMP_pressure;BME280_temperature;BME280_humidity;BME280_pressure;Samples;Min_cycle;Max_cycle;Signal;HPM_P1;HPM_P2
2023/06/28 00:00:13;;;;;;;0.40;0.40;;;;;;;18.11;45.22;97011.06;29395;274;63009;-52
2023/06/28 00:00:44;;;;;;;0.40;0.40;;;;;;;18.09;45.05;97014.94;29395;219;63005;-53
2023/06/28 00:01:15;;;;;;;0.40;0.40;;;;;;;18.17;45.01;97009.69;29395;219;63009;-55
2023/06/28 00:01:47;;;;;;;0.40;0.40;;;;;;;18.20;44.62;97014.53;29395;265;63005;-52
2023/06/28 00:02:20;;;;;;;0.40;0.40;;;;;;;18.18;44.83;97011.31;29395;202;63009;-59
2023/06/28 00:02:51;;;;;;;0.40;0.40;;;;;;;18.16;44.97;97013.59;29394;212;64009;-52
2023/06/28 00:03:23;;;;;;;0.40;0.40;;;;;;;18.13;44.81;97009.56;29395;284;63009;-51
2023/06/28 00:03:54;;;;;;;0.30;0.30;;;;;;;18.13;45.03;97015.06;29395;203;63005;-52
2023/06/28 00:04:25;;;;;;;0.37;0.37;;;;;;;18.12;44.91;97009.91;29395;208;63009;-52
2023/06/28 00:04:56;;;;;;;0.40;0.40;;;;;;;18.12;45.21;97012.66;29394;199;64009;-54
2023/06/28 00:05:27;;;;;;;0.40;0.40;;;;;;;18.12;45.25;97018.16;29395;319;63009;-52
2023/06/28 00:05:59;;;;;;;0.30;0.30;;;;;;;18.12;45.04;97013.47;29395;224;63004;-51
2023/06/28 00:06:31;;;;;;;0.30;0.30;;;;;;;18.15;45.07;97014.72;29395;224;63008;-58
2023/06/28 00:07:07;;;;;;;0.40;0.40;;;;;;;18.15;44.98;97009.25;29395;202;63004;-58
2023/06/28 00:07:39;;;;;;;0.40;0.40;;;;;;;18.15;45.04;97014.72;29395;199;63009;-52
2023/06/28 00:08:10;;;;;;;0.40;0.40;;;;;;;18.16;44.96;97013.59;29396;213;63005;-59
2023/06/28 00:08:41;;;;;;;0.40;0.40;;;;;;;18.16;44.98;97010.84;29396;244;63009;-53
2023/06/28 00:09:12;;;;;;;0.40;0.40;;;;;;;18.16;44.89;97014.41;29395;203;64009;-57
2023/06/28 00:09:44;;;;;;;0.30;0.30;;;;;;;18.15;44.71;97014.72;29396;197;63009;-56
2023/06/28 00:10:15;;;;;;;0.35;0.35;;;;;;;18.14;44.88;97016.69;29396;221;63005;-52
2023/06/28 00:10:47;;;;;;;0.40;0.40;;;;;;;18.14;44.90;97015.88;29396;223;63009;-51
2023/06/28 00:11:20;;;;;;;0.30;0.30;;;;;;;18.14;44.95;97018.63;29396;239;63011;-51
2023/06/28 00:11:51;;;;;;;0.40;0.40;;;;;;;18.18;44.75;97016.81;29396;290;63009;-51
2023/06/28 00:12:26;;;;;;;0.35;0.35;;;;;;;18.21;44.88;97010.63;29395;230;64009;-52
2023/06/28 00:12:58;;;;;;;0.40;0.40;;;;;;;18.22;44.65;97012.25;29396;223;63009;-58
2023/06/28 00:13:30;;;;;;;0.40;0.40;;;;;;;18.19;45.06;97013.72;29396;284;63008;-51
2023/06/28 00:14:01;;;;;;;0.40;0.40;;;;;;;18.17;45.00;97015.19;29396;202;63008;-57
2023/06/28 00:14:36;;;;;;;0.40;0.40;;;;;;;18.15;44.89;97012.00;29395;219;64008;-57
2023/06/28 00:15:09;;;;;;;0.30;0.30;;;;;;;18.13;45.12;97014.28;29396;265;63009;-57
2023/06/28 00:15:40;;;;;;;0.30;0.30;;;;;;;18.13;45.08;97011.53;29396;252;63005;-57
2023/06/28 00:16:14;;;;;;;0.40;0.40;;;;;;;18.12;45.12;97018.16;29396;214;63009;-57
2023/06/28 00:16:46;;;;;;;0.40;0.40;;;;;;;18.12;45.15;97018.16;29396;289;63005;-56
2023/06/28 00:17:17;;;;;;;0.40;0.40;;;;;;;18.12;44.86;97012.66;29396;242;63009;-57
2023/06/28 00:17:48;;;;;;;0.30;0.30;;;;;;;18.11;45.11;97016.53;29396;206;63005;-56
2023/06/28 00:18:20;;;;;;;0.40;0.40;;;;;;;18.10;45.09;97021.22;29395;202;64013;-58
2023/06/28 00:18:51;;;;;;;0.40;0.40;;;;;;;18.09;44.96;97020.44;29396;202;63005;-57
2023/06/28 00:19:26;;;;;;;0.40;0.40;;;;;;;18.09;45.21;97020.44;29396;222;63009;-58
2023/06/28 00:20:00;;;;;;;0.40;0.40;;;;;;;18.11;45.20;97022.03;29396;209;63004;-52
2023/06/28 00:20:34;;;;;;;0.40;0.40;;;;;;;18.11;45.01;97022.84;29396;271;63009;-58
2023/06/28 00:21:05;;;;;;;0.40;0.40;;;;;;;18.09;45.46;97020.44;29396;232;63004;-59
2023/06/28 00:21:36;;;;;;;0.30;0.30;;;;;;;18.08;45.21;97018.81;29396;227;63008;-53
2023/06/28 00:22:11;;;;;;;0.30;0.30;;;;;;;18.08;45.22;97024.31;29396;237;63018;-57
2023/06/28 00:22:44;;;;;;;0.32;0.32;;;;;;;18.08;45.29;97016.09;29395;199;64014;-52
2023/06/28 00:23:16;;;;;;;0.30;0.30;;;;;;;18.11;45.23;97027.53;29396;205;63005;-59
2023/06/28 00:23:47;;;;;;;0.40;0.40;;;;;;;18.09;45.17;97025.12;29396;221;63009;-52
2023/06/28 00:24:18;;;;;;;0.40;0.40;;;;;;;18.08;45.06;97012.53;29396;232;63011;-58
2023/06/28 00:24:50;;;;;;;0.40;0.40;;;;;;;18.06;45.49;97015.63;29396;220;63009;-57
2023/06/28 00:25:21;;;;;;;0.32;0.32;;;;;;;18.05;45.30;97022.25;29396;196;63005;-58
2023/06/28 00:25:53;;;;;;;0.40;0.40;;;;;;;18.05;45.34;97013.19;29396;204;63017;-57
2023/06/28 00:26:24;;;;;;;0.30;0.30;;;;;;;18.02;45.44;97022.91;29395;234;64009;-59
2023/06/28 00:26:56;;;;;;;0.30;0.30;;;;;;;18.06;45.45;97018.34;29396;221;63009;-52
2023/06/28 00:27:31;;;;;;;0.30;0.30;;;;;;;18.06;45.24;97020.31;29396;285;63004;-51
2023/06/28 00:28:04;;;;;;;0.40;0.40;;;;;;;18.04;45.65;97015.16;29396;218;63009;-58
2023/06/28 00:28:35;;;;;;;0.40;0.40;;;;;;;18.02;45.58;97020.16;29396;196;63004;-58
2023/06/28 00:29:07;;;;;;;0.40;0.40;;;;;;;18.00;46.16;97027.97;29396;237;63008;-50
2023/06/28 00:29:39;;;;;;;0.40;0.40;;;;;;;17.98;46.02;97024.75;29396;205;63004;-57
2023/06/28 00:30:11;;;;;;;0.40;0.40;;;;;;;17.95;46.11;97028.19;29396;225;63017;-51
2023/06/28 00:30:42;;;;;;;0.40;0.40;;;;;;;17.94;46.30;97023.81;29396;292;63005;-57
2023/06/28 00:31:13;;;;;;;0.30;0.30;;;;;;;17.93;46.50;97022.22;29396;218;63009;-57
2023/06/28 00:31:44;;;;;;;0.30;0.30;;;;;;;17.90;46.60;97020.16;29395;216;64009;-59
2023/06/28 00:32:16;;;;;;;0.40;0.40;;;;;;;17.87;46.93;97020.81;29396;218;63009;-51
2023/06/28 00:32:47;;;;;;;0.32;0.32;;;;;;;17.87;46.74;97022.75;29396;202;63005;-57
2023/06/28 00:34:27;;;;;;;0.40;0.40;;;;;;;17.84;46.65;97024.22;88178;211;64004;-51
2023/06/28 00:34:58;;;;;;;0.40;0.40;;;;;;;17.84;46.47;97024.22;29394;214;64009;-58
2023/06/28 00:35:29;;;;;;;0.40;0.40;;;;;;;17.85;46.57;97025.84;29395;215;63010;-59
2023/06/28 00:36:01;;;;;;;0.40;0.40;;;;;;;17.84;46.53;97029.72;29395;245;63005;-53
2023/06/28 00:36:33;;;;;;;0.40;0.40;;;;;;;17.84;46.76;97029.72;29395;239;63004;-58
2023/06/28 00:37:05;;;;;;;0.40;0.40;;;;;;;17.86;46.56;97032.12;29395;215;63009;-59
2023/06/28 00:37:36;;;;;;;0.40;0.40;;;;;;;17.85;46.34;97036.81;29395;210;63004;-57
2023/06/28 00:38:07;;;;;;;0.40;0.40;;;;;;;17.85;46.32;97036.81;29395;267;63009;-58
2023/06/28 00:38:38;;;;;;;0.40;0.40;;;;;;;17.91;46.22;97024.50;29395;208;63010;-57
2023/06/28 00:39:11;;;;;;;0.40;0.40;;;;;;;17.92;46.09;97031.59;29395;248;63013;-59
2023/06/28 00:39:42;;;;;;;0.40;0.40;;;;;;;17.96;46.17;97035.28;29395;216;63005;-56
2023/06/28 00:40:16;;;;;;;0.30;0.30;;;;;;;18.00;46.01;97030.72;29394;218;64014;-57
2023/06/28 00:40:48;;;;;;;0.40;0.40;;;;;;;18.00;46.15;97033.47;29395;394;63005;-57
2023/06/28 00:41:20;;;;;;;0.40;0.40;;;;;;;17.97;45.97;97034.13;29394;251;64013;-59
2023/06/28 00:41:51;;;;;;;0.40;0.40;;;;;;;17.97;46.40;97028.66;29395;297;63005;-57
2023/06/28 00:42:22;;;;;;;0.30;0.30;;;;;;;17.93;46.55;97033.19;29394;288;64013;-57
2023/06/28 00:42:53;;;;;;;0.37;0.37;;;;;;;17.91;46.87;97040.16;29395;210;63005;-57
2023/06/28 00:43:25;;;;;;;0.40;0.40;;;;;;;17.88;46.97;97036.16;29395;225;63009;-53
2023/06/28 00:43:56;;;;;;;0.40;0.40;;;;;;;17.89;46.96;97039.69;29395;283;63000;-58
2023/06/28 00:44:31;;;;;;;0.30;0.30;;;;;;;17.90;46.41;97031.13;29395;222;63009;-59
2023/06/28 00:45:03;;;;;;;0.32;0.32;;;;;;;17.93;46.56;97030.47;29395;220;63004;-58
2023/06/28 00:45:34;;;;;;;0.30;0.30;;;;;;;17.94;46.55;97029.31;29394;245;64013;-57
2023/06/28 00:46:06;;;;;;;0.40;0.40;;;;;;;17.92;46.51;97036.28;29395;272;63004;-51
2023/06/28 00:46:40;;;;;;;0.40;0.40;;;;;;;17.95;46.31;97035.59;29395;342;63016;-52
2023/06/28 00:47:12;;;;;;;0.40;0.40;;;;;;;17.97;46.58;97034.13;29395;233;63005;-50
2023/06/28 00:47:44;;;;;;;0.30;0.30;;;;;;;17.95;46.35;97030.13;29395;199;63009;-51
2023/06/28 00:48:18;;;;;;;0.40;0.40;;;;;;;17.94;46.32;97031.25;29395;228;63005;-57
2023/06/28 00:48:50;;;;;;;0.40;0.40;;;;;;;17.93;46.23;97035.13;29395;227;63009;-58
2023/06/28 00:49:23;;;;;;;0.40;0.40;;;;;;;17.93;46.41;97033.19;29395;204;63005;-51
2023/06/28 00:49:55;;;;;;;0.30;0.30;;;;;;;17.94;46.58;97037.56;29395;196;63009;-57
2023/06/28 00:50:27;;;;;;;0.30;0.30;;;;;;;17.93;46.69;97035.94;29394;208;64009;-57
2023/06/28 00:50:59;;;;;;;0.30;0.30;;;;;;;17.90;46.37;97039.38;29395;328;63009;-51
2023/06/28 00:51:32;;;;;;;0.40;0.40;;;;;;;17.88;46.39;97036.16;29395;212;63009;-58
2023/06/28 00:52:08;;;;;;;0.30;0.30;;;;;;;17.88;46.37;97036.16;29395;213;63009;-56
2023/06/28 00:52:41;;;;;;;0.40;0.40;;;;;;;17.96;46.54;97038.03;29395;363;63004;-56
2023/06/28 00:53:16;;;;;;;0.37;0.37;;;;;;;17.98;46.11;97041.22;29395;210;63009;-51
2023/06/28 00:53:47;;;;;;;0.40;0.40;;;;;;;17.96;46.51;97037.22;29395;206;63004;-53
2023/06/28 00:54:19;;;;;;;0.35;0.35;;;;;;;17.99;46.47;97042.84;29395;369;63008;-56
2023/06/28 00:54:50;;;;;;;0.40;0.40;;;;;;;18.01;46.32;97040.56;29395;210;63005;-58
2023/06/28 00:55:21;;;;;;;0.30;0.30;;;;;;;18.00;46.31;97044.44;29394;236;64014;-58
2023/06/28 00:55:55;;;;;;;0.30;0.30;;;;;;;17.96;46.21;97038.03;29395;235;63005;-57
2023/06/28 00:56:29;;;;;;;0.40;0.40;;;;;;;17.95;46.33;97036.41;29395;224;63009;-57
2023/06/28 00:57:00;;;;;;;0.30;0.30;;;;;;;17.96;46.36;97038.03;29394;287;64009;-59
2023/06/28 00:57:33;;;;;;;0.30;0.30;;;;;;;17.95;46.44;97036.41;29395;262;63009;-57
2023/06/28 00:58:05;;;;;;;0.40;0.40;;;;;;;17.94;46.30;97039.50;29395;227;63005;-57
2023/06/28 00:58:36;;;;;;;0.40;0.40;;;;;;;17.94;46.52;97043.03;29395;204;63009;-58
2023/06/28 00:59:09;;;;;;;0.35;0.35;;;;;;;17.95;46.35;97046.59;29395;202;63004;-59
2023/06/28 00:59:41;;;;;;;0.40;0.40;;;;;;;17.92;46.74;97048.06;29395;246;63015;-58
2023/06/28 01:00:16;;;;;;;0.40;0.40;;;;;;;17.89;47.20;97048.72;29394;202;64009;-58
2023/06/28 01:00:48;;;;;;;0.40;0.40;;;;;;;17.87;47.22;97050.22;29395;222;63009;-58
2023/06/28 01:01:19;;;;;;;0.30;0.30;;;;;;;17.84;46.92;97046.19;29395;219;63004;-51
2023/06/28 01:01:52;;;;;;;0.30;0.30;;;;;;;17.83;47.24;97050.06;29395;238;63008;-57
2023/06/28 01:02:24;;;;;;;0.40;0.40;;;;;;;17.82;47.14;97048.47;29395;213;63008;-59
2023/06/28 01:02:57;;;;;;;0.40;0.40;;;;;;;17.83;47.06;97050.06;29395;217;63009;-52
2023/06/28 01:03:29;;;;;;;0.35;0.35;;;;;;;17.83;47.00;97044.59;29395;256;63005;-58
2023/06/28 01:04:00;;;;;;;0.30;0.30;;;;;;;17.85;47.34;97047.00;29394;294;64009;-54
2023/06/28 01:04:31;;;;;;;0.30;0.30;;;;;;;17.92;46.73;97058.25;29395;241;63005;-57
2023/06/28 01:05:03;;;;;;;0.40;0.40;;;;;;;17.95;47.00;97052.09;29394;202;64013;-53
2023/06/28 01:05:35;;;;;;;0.40;0.40;;;;;;;17.96;46.77;97057.25;29395;262;63005;-58
2023/06/28 01:06:08;;;;;;;0.40;0.40;;;;;;;17.95;46.92;97057.56;29395;222;63009;-51
2023/06/28 01:06:43;;;;;;;0.40;0.40;;;;;;;17.93;46.92;97049.66;29395;231;63004;-53
2023/06/28 01:07:15;;;;;;;0.30;0.30;;;;;;;17.93;46.95;97048.88;29395;221;63009;-51
2023/06/28 01:07:47;;;;;;;0.40;0.40;;;;;;;17.90;47.00;97055.84;29395;227;63004;-52
2023/06/28 01:08:20;;;;;;;0.40;0.40;;;;;;;17.90;46.80;97053.09;29395;340;63009;-57
2023/06/28 01:08:52;;;;;;;2.03;1.95;;;;;;;17.90;47.08;97052.28;29395;243;63014;-58
2023/06/28 01:09:28;;;;;;;0.30;0.30;;;;;;;17.91;47.38;97057.44;29395;218;63022;-57
2023/06/28 01:09:59;;;;;;;0.40;0.40;;;;;;;17.94;47.13;97059.50;29395;198;63005;-58
2023/06/28 01:10:31;;;;;;;0.40;0.40;;;;;;;17.93;47.04;97054.34;29394;205;64014;-51
2023/06/28 01:11:03;;;;;;;0.40;0.40;;;;;;;17.93;46.73;97060.66;29395;219;63005;-58
2023/06/28 01:11:35;;;;;;;0.40;0.40;;;;;;;17.92;47.00;97053.56;29395;209;63009;-57
2023/06/28 01:12:07;;;;;;;0.30;0.30;;;;;;;17.91;46.92;97054.69;29395;233;63005;-58
2023/06/28 01:12:39;;;;;;;0.40;0.40;;;;;;;17.89;46.90;97062.47;29395;213;63009;-57
2023/06/28 01:13:11;;;;;;;0.40;0.40;;;;;;;17.88;47.08;97063.59;29395;200;63005;-51
2023/06/28 01:13:42;;;;;;;0.40;0.40;;;;;;;17.88;47.18;97057.31;29395;251;63009;-58
2023/06/28 01:14:15;;;;;;;0.40;0.40;;;;;;;17.88;47.20;97054.56;29394;197;64009;-58
2023/06/28 01:14:46;;;;;;;0.30;0.30;;;;;;;17.88;47.34;97060.84;29395;196;63009;-51
2023/06/28 01:15:18;;;;;;;0.40;0.40;;;;;;;17.88;47.28;97062.78;29394;313;64009;-57
2023/06/28 01:15:49;;;;;;;0.30;0.30;;;;;;;17.86;47.16;97060.38;29395;239;63009;-57
2023/06/28 01:16:20;;;;;;;0.40;0.40;;;;;;;17.88;47.25;97069.09;29395;218;63004;-57
2023/06/28 01:16:55;;;;;;;0.40;0.40;;;;;;;17.91;46.97;97062.12;29395;242;63017;-57
2023/06/28 01:17:27;;;;;;;0.40;0.40;;;;;;;17.95;47.19;97069.34;29395;323;63005;-52
2023/06/28 01:18:00;;;;;;;0.40;0.40;;;;;;;17.93;47.50;97066.16;29395;290;63009;-57
2023/06/28 01:18:33;;;;;;;0.40;0.40;;;;;;;17.89;47.46;97067.16;29395;296;63005;-51
2023/06/28 01:19:05;;;;;;;0.40;0.40;;;;;;;17.85;47.31;97069.75;29395;229;63009;-52
2023/06/28 01:19:37;;;;;;;0.40;0.40;;;;;;;17.82;47.13;97064.94;29395;218;63005;-50
2023/06/28 01:20:09;;;;;;;0.30;0.30;;;;;;;17.80;47.61;97069.16;29394;238;64013;-53
2023/06/28 01:20:41;;;;;;;0.40;0.40;;;;;;;17.78;47.33;97061.25;29395;225;63011;-57
2023/06/28 01:21:14;;;;;;;0.40;0.40;;;;;;;17.79;47.69;97071.09;29395;237;63009;-52
2023/06/28 01:21:51;;;;;;;0.40;0.40;;;;;;;17.79;47.93;97071.09;29395;214;63004;-59
2023/06/28 01:22:25;;;;;;;0.40;0.40;;;;;;;17.77;47.78;97073.38;29394;213;64013;-59
2023/06/28 01:22:57;;;;;;;0.40;0.40;;;;;;;17.74;48.42;97074.84;29395;296;63004;-57
2023/06/28 01:23:29;;;;;;;0.30;0.30;;;;;;;17.71;47.89;97078.25;29395;229;63018;-57
2023/06/28 01:24:00;;;;;;;0.37;0.37;;;;;;;17.69;48.50;97074.22;29395;225;63004;-51
2023/06/28 01:24:32;;;;;;;0.30;0.30;;;;;;;17.68;48.42;97067.13;29395;202;63008;-57
2023/06/28 01:25:04;;;;;;;0.40;0.40;;;;;;;17.76;47.94;97071.75;29395;203;63005;-57
2023/06/28 01:25:36;;;;;;;0.40;0.40;;;;;;;17.80;48.07;97077.38;29395;219;63009;-58
2023/06/28 01:26:08;;;;;;;0.40;0.40;;;;;;;17.77;49.01;97081.59;29394;207;64009;-50
2023/06/28 01:26:40;;;;;;;0.40;0.40;;;;;;;17.73;49.16;97077.91;29394;208;64013;-57
2023/06/28 01:27:13;;;;;;;0.40;0.40;;;;;;;17.73;48.61;97077.91;29395;227;63005;-52
2023/06/28 01:27:46;;;;;;;0.40;0.40;;;;;;;17.79;47.99;97079.31;29395;199;63009;-55
2023/06/28 01:28:19;;;;;;;0.40;0.40;;;;;;;17.83;48.14;97074.78;29395;328;63010;-50
2023/06/28 01:28:51;;;;;;;0.40;0.40;;;;;;;17.81;48.29;97079.78;29395;203;63009;-50
2023/06/28 01:29:23;;;;;;;0.30;0.30;;;;;;;17.79;48.34;97079.31;29395;314;63004;-60
2023/06/28 01:29:56;;;;;;;0.40;0.40;;;;;;;17.75;48.12;97075.63;29394;223;64009;-51
2023/06/28 01:30:29;;;;;;;0.40;0.40;;;;;;;17.75;48.30;97081.13;29394;275;64009;-53
2023/06/28 01:31:03;;;;;;;0.32;0.32;;;;;;;17.72;48.83;97079.06;29395;197;63008;-59
2023/06/28 01:31:36;;;;;;;0.35;0.35;;;;;;;17.68;48.81;97075.38;29395;230;63004;-58
2023/06/28 01:32:08;;;;;;;0.40;0.40;;;;;;;17.66;48.92;97069.44;29395;206;63009;-58
2023/06/28 01:32:39;;;;;;;0.40;0.40;;;;;;;17.64;48.75;97074.41;29395;299;63005;-51
2023/06/28 01:33:13;;;;;;;0.40;0.40;;;;;;;17.64;48.78;97079.91;29395;227;63009;-51
2023/06/28 01:33:46;;;;;;;0.40;0.40;;;;;;;17.66;49.05;97066.69;29394;237;64009;-57
2023/06/28 01:35:24;;;;;;;0.40;0.40;;;;;;;17.66;48.85;97074.91;88178;216;64004;-88
2023/06/28 01:35:59;;;;;;;0.40;0.40;;;;;;;17.65;49.47;97076.06;29394;249;64009;-87
2023/06/28 01:36:33;;;;;;;0.40;0.40;;;;;;;17.63;49.50;97078.31;29394;234;64009;-88
2023/06/28 01:37:08;;;;;;;0.40;0.40;;;;;;;17.62;49.45;97073.94;29395;197;63009;-88
2023/06/28 01:37:39;;;;;;;0.35;0.35;;;;;;;17.61;49.47;97072.34;29395;319;63005;-87
2023/06/28 01:38:14;;;;;;;0.40;0.40;;;;;;;17.61;49.54;97075.09;29395;210;63009;-88
2023/06/28 01:38:48;;;;;;;0.40;0.40;;;;;;;17.60;49.79;97068.78;29395;208;63000;-88
2023/06/28 01:39:22;;;;;;;0.40;0.40;;;;;;;17.59;49.83;97069.94;29395;236;63009;-89
2023/06/28 01:39:56;;;;;;;0.40;0.40;;;;;;;17.58;49.97;97070.25;29395;337;63004;-91
2023/06/28 01:40:35;;;;;;;0.40;0.40;;;;;;;17.56;50.77;97072.53;29394;202;64013;-88
2023/06/28 01:41:11;;;;;;;0.40;0.40;;;;;;;17.51;50.62;97070.78;29394;228;64009;-87
2023/06/28 01:41:47;;;;;;;0.40;0.40;;;;;;;17.53;50.58;97073.19;29395;204;63012;-86
2023/06/28 01:42:21;;;;;;;0.40;0.40;;;;;;;17.53;50.41;97068.50;29395;309;63005;-88
2023/06/28 01:42:58;;;;;;;0.40;0.40;;;;;;;17.54;50.07;97069.31;29395;324;63009;-89
2023/06/28 01:43:40;;;;;;;0.40;0.40;;;;;;;17.54;50.14;97074.81;29394;224;64009;-89
2023/06/28 01:44:17;;;;;;;0.40;0.40;;;;;;;17.52;50.32;97066.91;29394;201;64013;-86
2023/06/28 01:44:49;;;;;;;0.40;0.40;;;;;;;17.50;50.07;97074.66;29395;238;63005;-90
2023/06/28 01:45:24;;;;;;;0.40;0.40;;;;;;;17.50;50.51;97073.84;29395;319;63009;-89
2023/06/28 01:45:59;;;;;;;0.40;0.40;;;;;;;17.49;50.36;97072.25;29395;227;63005;-91
2023/06/28 01:46:36;;;;;;;0.40;0.40;;;;;;;17.47;51.41;97074.53;29395;235;63009;-89
2023/06/28 01:47:10;;;;;;;0.40;0.40;;;;;;;17.46;50.92;97078.41;29395;206;63010;-89
2023/06/28 01:47:44;;;;;;;0.40;0.40;;;;;;;17.45;51.43;97079.53;29395;334;63009;-89
2023/06/28 01:48:17;;;;;;;0.40;0.40;;;;;;;17.43;51.11;97072.44;29395;294;63004;-89
2023/06/28 01:48:54;;;;;;;0.40;0.40;;;;;;;17.41;51.66;97077.47;29395;197;63009;-89
2023/06/28 01:49:30;;;;;;;0.40;0.40;;;;;;;17.40;51.42;97075.84;29394;203;64008;-90
2023/06/28 01:50:05;;;;;;;0.40;0.40;;;;;;;17.38;51.48;97069.88;29395;206;63009;-89
2023/06/28 01:50:39;;;;;;;0.40;0.40;;;;;;;17.37;51.50;97076.50;29395;218;63005;-89
2023/06/28 01:51:10;;;;;;;0.40;0.40;;;;;;;17.38;51.86;97077.31;29395;211;63009;-89
2023/06/28 01:51:43;;;;;;;0.40;0.40;;;;;;;17.37;51.63;97076.50;29395;204;63005;-88
2023/06/28 01:52:17;;;;;;;0.40;0.40;;;;;;;17.38;51.34;97082.78;29395;209;63009;-89
2023/06/28 01:53:07;;;;;;;0.40;0.40;;;;;;;17.35;51.88;97073.28;29395;248;63005;-90
2023/06/28 01:53:39;;;;;;;0.40;0.40;;;;;;;17.33;52.85;97069.28;29395;242;63009;-89
2023/06/28 01:54:14;;;;;;;0.40;0.40;;;;;;;17.31;52.06;97082.53;29394;263;64009;-89
2023/06/28 01:54:45;;;;;;;0.40;0.40;;;;;;;17.30;53.06;97084.47;29395;222;63020;-88
2023/06/28 01:55:19;;;;;;;0.40;0.40;;;;;;;17.29;53.17;97080.13;29395;257;63004;-88
2023/06/28 01:55:51;;;;;;;0.40;0.40;;;;;;;17.28;53.23;97085.94;29395;196;63009;-89
2023/06/28 01:56:25;;;;;;;0.40;0.40;;;;;;;17.27;53.06;97082.41;29394;198;64009;-89
2023/06/28 01:56:56;;;;;;;0.47;0.47;;;;;;;17.25;53.12;97079.19;29395;203;63008;-88
2023/06/28 01:57:27;;;;;;;0.40;0.40;;;;;;;17.25;53.84;97089.34;29394;198;64002;-88
2023/06/28 01:58:01;;;;;;;0.40;0.40;;;;;;;17.24;53.59;97083.06;29395;361;63009;-88
2023/06/28 01:58:32;;;;;;;0.40;0.40;;;;;;;17.24;54.71;97083.06;29395;216;63005;-88
2023/06/28 01:59:06;;;;;;;0.40;0.40;;;;;;;17.22;54.12;97077.09;29394;212;64014;-87
2023/06/28 01:59:40;;;;;;;0.40;0.40;;;;;;;17.21;56.62;97088.41;29395;200;63005;-89
2023/06/28 02:00:16;;;;;;;0.40;0.40;;;;;;;17.16;57.51;97089.37;29395;309;63009;-87
2023/06/28 02:00:48;;;;;;;0.40;0.40;;;;;;;17.13;59.47;97091.97;29394;228;64005;-89
2023/06/28 02:01:21;;;;;;;0.40;0.40;;;;;;;17.08;57.76;97092.97;29395;196;63009;-89
2023/06/28 02:01:55;;;;;;;0.40;0.40;;;;;;;17.06;58.28;97087.00;29395;216;63004;-90
2023/06/28 02:02:26;;;;;;;0.40;0.40;;;;;;;17.03;58.69;97088.47;29395;199;63009;-90
2023/06/28 02:02:57;;;;;;;0.40;0.40;;;;;;;17.02;58.32;97086.06;29394;325;64009;-87
2023/06/28 02:03:29;;;;;;;0.30;0.30;;;;;;;17.00;57.46;97088.31;29395;196;63013;-89
2023/06/28 02:04:00;;;;;;;0.32;0.32;;;;;;;16.99;57.37;97086.72;29395;204;63004;-89
2023/06/28 02:04:31;;;;;;;0.40;0.40;;;;;;;16.99;57.38;97092.19;29395;252;63008;-89
2023/06/28 02:05:05;;;;;;;0.37;0.37;;;;;;;16.97;57.46;97084.31;29395;323;63005;-89
2023/06/28 02:05:40;;;;;;;0.32;0.32;;;;;;;16.96;57.88;97087.41;29395;298;63009;-89
2023/06/28 02:06:14;;;;;;;0.40;0.40;;;;;;;16.93;57.38;97086.12;29395;226;63005;-89
2023/06/28 02:06:45;;;;;;;0.40;0.40;;;;;;;16.92;58.26;97091.94;29394;296;64013;-88
2023/06/28 02:07:16;;;;;;;0.30;0.30;;;;;;;16.90;57.75;97086.78;29395;202;63015;-88
2023/06/28 02:07:50;;;;;;;0.40;0.40;;;;;;;16.89;58.42;97090.66;29395;222;63009;-89
2023/06/28 02:08:26;;;;;;;0.40;0.40;;;;;;;16.89;58.04;97092.56;29395;325;63005;-90
2023/06/28 02:09:02;;;;;;;0.40;0.40;;;;;;;16.88;58.26;97088.22;29395;225;63009;-89
2023/06/28 02:09:43;;;;;;;0.40;0.40;;;;;;;16.86;58.04;97093.22;29395;239;63004;-89
2023/06/28 02:10:24;;;;;;;0.40;0.40;;;;;;;16.86;58.47;97085.00;29395;204;63009;-88
2023/06/28 02:10:55;;;;;;;0.40;0.40;;;;;;;16.85;58.91;97095.16;29417;219;63004;-89
2023/06/28 02:11:27;;;;;;;0.40;0.40;;;;;;;16.84;59.96;97092.75;29395;225;63009;-88
2023/06/28 02:12:01;;;;;;;0.40;0.40;;;;;;;16.82;59.62;97084.06;29394;227;64008;-87
2023/06/28 02:12:34;;;;;;;0.40;0.40;;;;;;;16.77;61.03;97090.53;29395;273;63009;-89
2023/06/28 02:13:08;;;;;;;0.40;0.40;;;;;;;16.76;59.67;97094.38;29395;205;63005;-89
2023/06/28 02:13:40;;;;;;;0.40;0.40;;;;;;;16.77;60.29;97086.97;29395;265;63015;-90
2023/06/28 02:14:16;;;;;;;0.40;0.40;;;;;;;16.77;59.63;97084.22;29395;234;63009;-89
2023/06/28 02:14:51;;;;;;;0.40;0.40;;;;;;;16.75;59.61;97085.38;29395;224;63009;-89
2023/06/28 02:15:27;;;;;;;0.40;0.40;;;;;;;16.75;59.61;97079.88;29395;263;63005;-89
2023/06/28 02:16:02;;;;;;;0.40;0.40;;;;;;;16.74;59.31;97086.50;29395;246;63009;-87
2023/06/28 02:16:34;;;;;;;0.40;0.40;;;;;;;16.73;58.88;97084.09;29394;322;64009;-90
2023/06/28 02:17:13;;;;;;;0.40;0.40;;;;;;;16.72;59.71;97083.28;29395;244;63009;-87
2023/06/28 02:17:50;;;;;;;0.40;0.40;;;;;;;16.70;61.22;97091.03;29395;218;63004;-90
2023/06/28 02:18:26;;;;;;;0.40;0.40;;;;;;;16.70;59.41;97087.47;29394;228;64013;-89
2023/06/28 02:19:01;;;;;;;0.40;0.40;;;;;;;16.68;60.49;97081.50;29395;218;63009;-87
2023/06/28 02:19:36;;;;;;;0.40;0.40;;;;;;;16.67;59.77;97086.19;29395;214;63008;-89
2023/06/28 02:20:12;;;;;;;0.40;0.40;;;;;;;16.67;58.73;97080.72;29395;232;63005;-88
2023/06/28 02:20:46;;;;;;;0.40;0.40;;;;;;;16.68;58.60;97082.31;29395;225;63009;-89
2023/06/28 02:21:19;;;;;;;0.40;0.40;;;;;;;16.69;58.07;97078.44;29394;308;64009;-89
2023/06/28 02:21:51;;;;;;;0.40;0.40;;;;;;;16.70;57.93;97074.56;29395;249;63009;-89
2023/06/28 02:22:24;;;;;;;0.40;0.40;;;;;;;16.70;57.39;97082.00;29395;326;63005;-90
2023/06/28 02:22:55;;;;;;;0.40;0.40;;;;;;;16.68;59.26;97076.03;29395;211;63009;-90
2023/06/28 02:23:27;;;;;;;0.40;0.40;;;;;;;16.65;58.93;97076.69;29395;206;63004;-90
2023/06/28 02:23:58;;;;;;;0.40;0.40;;;;;;;16.64;58.42;97073.16;29395;208;63009;-90
2023/06/28 02:24:32;;;;;;;0.30;0.30;;;;;;;16.65;59.00;97084.91;29395;205;63004;-89
2023/06/28 02:25:06;;;;;;;0.40;0.40;;;;;;;16.64;58.36;97070.41;29395;217;63009;-89
2023/06/28 02:25:38;;;;;;;0.40;0.40;;;;;;;16.65;58.80;97072.00;29395;333;63004;-90
2023/06/28 02:26:12;;;;;;;0.40;0.40;;;;;;;16.66;58.80;97078.28;29395;228;63008;-89
2023/06/28 02:26:54;;;;;;;0.40;0.40;;;;;;;16.66;59.34;97081.03;29394;234;64008;-88
2023/06/28 02:27:27;;;;;;;0.40;0.40;;;;;;;16.63;60.17;97079.72;29395;249;63008;-90
2023/06/28 02:27:58;;;;;;;0.40;0.40;;;;;;;16.61;59.21;97076.53;29395;220;63005;-89
2023/06/28 02:28:30;;;;;;;0.37;0.37;;;;;;;16.62;59.12;97078.16;29395;197;63009;-89
2023/06/28 02:29:03;;;;;;;0.40;0.40;;;;;;;16.62;58.42;97078.16;29395;203;63005;-90
2023/06/28 02:29:37;;;;;;;0.40;0.40;;;;;;;16.63;58.52;97078.94;29395;202;63009;-89
2023/06/28 02:30:12;;;;;;;0.40;0.40;;;;;;;16.64;57.63;97073.16;29395;206;63005;-90
2023/06/28 02:30:43;;;;;;;0.40;0.40;;;;;;;16.64;57.85;97075.88;29395;234;63009;-89
2023/06/28 02:31:17;;;;;;;0.30;0.30;;;;;;;16.65;57.55;97077.50;29395;196;63004;-89
2023/06/28 02:31:50;;;;;;;0.40;0.40;;;;;;;16.67;57.57;97079.91;29394;323;64013;-90
2023/06/28 02:32:21;;;;;;;0.40;0.40;;;;;;;16.67;57.48;97075.22;29394;219;64009;-89
2023/06/28 02:32:56;;;;;;;0.40;0.40;;;;;;;16.69;57.45;97075.72;29394;308;64013;-89
2023/06/28 02:33:28;;;;;;;0.40;0.40;;;;;;;16.75;56.51;97074.41;29395;230;63004;-88
2023/06/28 02:33:59;;;;;;;0.40;0.40;;;;;;;16.75;56.81;97071.66;29394;272;64008;-88
2023/06/28 02:34:30;;;;;;;0.30;0.30;;;;;;;16.73;56.55;97073.13;29395;218;63005;-90
2023/06/28 02:35:01;;;;;;;0.40;0.40;;;;;;;16.73;56.63;97073.94;29395;247;63017;-89
2023/06/28 02:35:33;;;;;;;0.40;0.40;;;;;;;16.73;56.67;97078.59;29395;237;63005;-88
2023/06/28 02:36:07;;;;;;;0.40;0.40;;;;;;;16.72;56.63;97072.31;29395;216;63009;-89
2023/06/28 02:36:41;;;;;;;0.30;0.30;;;;;;;16.72;56.31;97072.31;29395;250;63005;-88
2023/06/28 02:37:12;;;;;;;0.40;0.40;;;;;;;16.66;56.30;97061.84;29395;279;63009;-90
2023/06/28 02:37:44;;;;;;;0.40;0.40;;;;;;;16.71;56.51;97075.38;29394;203;64009;-90
2023/06/28 02:38:15;;;;;;;0.40;0.40;;;;;;;16.72;56.32;97066.84;29395;239;63009;-88
2023/06/28 02:38:46;;;;;;;0.40;0.40;;;;;;;16.73;56.13;97073.13;29395;334;63004;-88